Time;durP1;ratioP1;P1;durP2;ratioP2;P2;SDS_P1;SDS_P2;PMS_P1;PMS_P2;Temp;Humidity;BMP_temperature;BMP_pressure;BME280_temperature;BME280_humidity;BME280_pressure;Samples;Min_cycle;Max_cycle;Signal;HPM_P1;HPM_P2
2022/07/22 00:01:34;;;;;;;8.82;5.03;;;;;;;;;;5031523;28;20389;-71
2022/07/22 00:04:01;;;;;;;10.07;5.07;;;;;;;;;;5032193;28;20056;-70
2022/07/22 00:06:27;;;;;;;16.20;4.72;;;;;;;;;;5031681;28;20022;-71
2022/07/22 00:08:53;;;;;;;13.82;5.40;;;;;;;;;;5031682;28;20045;-70
2022/07/22 00:11:19;;;;;;;9.82;5.63;;;;;;;;;;5031830;28;20030;-70
2022/07/22 00:13:46;;;;;;;7.93;4.88;;;;;;;;;;5034806;28;20537;-71
2022/07/22 00:16:12;;;;;;;6.90;4.57;;;;;;;;;;5030550;28;20390;-71
2022/07/22 00:18:38;;;;;;;8.77;4.60;;;;;;;;;;5031699;28;20052;-70
2022/07/22 00:21:04;;;;;;;9.48;4.93;;;;;;;;;;5031419;28;20067;-71
2022/07/22 00:23:30;;;;;;;9.82;5.78;;;;;;;;;;5031590;28;20021;-70
2022/07/22 00:25:57;;;;;;;8.90;4.90;;;;;;;;;;5031356;28;20065;-71
2022/07/22 00:28:23;;;;;;;12.55;5.82;;;;;;;;;;5031702;28;20507;-71
2022/07/22 00:30:49;;;;;;;10.70;4.93;;;;;;;;;;5031075;28;20018;-71
2022/07/22 00:33:15;;;;;;;15.18;5.25;;;;;;;;;;5031394;28;20029;-71
2022/07/22 00:35:41;;;;;;;12.48;5.60;;;;;;;;;;5031487;28;20064;-71
2022/07/22 00:38:08;;;;;;;15.35;10.90;;;;;;;;;;5022551;28;20385;-71
2022/07/22 00:40:34;;;;;;;13.95;6.85;;;;;;;;;;5030349;28;20380;-70
2022/07/22 00:43:00;;;;;;;9.52;5.75;;;;;;;;;;5030036;28;20101;-70
2022/07/22 00:45:26;;;;;;;7.35;4.95;;;;;;;;;;5031554;28;20079;-70
2022/07/22 00:47:53;;;;;;;7.80;4.75;;;;;;;;;;5031122;28;20072;-71
2022/07/22 00:50:20;;;;;;;10.30;4.68;;;;;;;;;;5031372;28;20032;-70
2022/07/22 00:52:47;;;;;;;11.25;4.95;;;;;;;;;;5031578;28;20030;-72
2022/07/22 00:55:13;;;;;;;9.95;4.57;;;;;;;;;;5029644;28;20013;-71
2022/07/22 00:57:40;;;;;;;11.50;5.07;;;;;;;;;;5031100;28;20025;-71
2022/07/22 01:00:09;;;;;;;7.65;5.25;;;;;;;;;;5032757;28;20032;-71
2022/07/22 01:02:35;;;;;;;14.50;5.20;;;;;;;;;;5027207;28;20077;-70
2022/07/22 01:05:01;;;;;;;8.48;4.60;;;;;;;;;;5026210;28;20024;-71
2022/07/22 01:07:27;;;;;;;11.55;4.45;;;;;;;;;;5031140;28;20515;-71
2022/07/22 01:09:53;;;;;;;13.23;4.65;;;;;;;;;;5034809;28;20144;-71
2022/07/22 01:12:19;;;;;;;9.60;4.57;;;;;;;;;;5028223;28;20042;-72
2022/07/22 01:14:45;;;;;;;19.00;5.47;;;;;;;;;;5029808;28;20032;-71
2022/07/22 01:17:12;;;;;;;9.80;5.28;;;;;;;;;;5033726;28;20024;-71
2022/07/22 01:19:38;;;;;;;14.90;6.88;;;;;;;;;;5034734;28;20021;-71
2022/07/22 01:22:07;;;;;;;17.83;12.15;;;;;;;;;;5034437;28;20516;-71
2022/07/22 01:24:33;;;;;;;18.40;10.63;;;;;;;;;;5034583;28;20030;-71
2022/07/22 01:27:00;;;;;;;10.63;7.28;;;;;;;;;;5034464;28;20025;-71
2022/07/22 01:29:26;;;;;;;9.43;6.13;;;;;;;;;;5034508;28;20022;-71
2022/07/22 01:31:52;;;;;;;12.50;6.10;;;;;;;;;;5033243;28;20044;-71
2022/07/22 01:34:18;;;;;;;13.07;6.22;;;;;;;;;;5034595;28;20071;-71
2022/07/22 01:36:44;;;;;;;10.88;4.15;;;;;;;;;;5034896;28;20469;-71
2022/07/22 01:39:11;;;;;;;15.10;5.32;;;;;;;;;;5034381;28;20053;-71
2022/07/22 01:41:37;;;;;;;12.07;5.18;;;;;;;;;;5033197;28;20075;-71
2022/07/22 01:44:04;;;;;;;9.43;3.80;;;;;;;;;;5034310;28;20096;-71
2022/07/22 01:46:30;;;;;;;11.57;4.60;;;;;;;;;;5034195;28;20031;-71
2022/07/22 01:48:56;;;;;;;10.02;4.95;;;;;;;;;;5034209;28;20476;-71
2022/07/22 01:51:23;;;;;;;15.75;5.13;;;;;;;;;;5033808;28;20036;-71
2022/07/22 01:53:49;;;;;;;11.05;5.13;;;;;;;;;;5034324;28;20018;-71
2022/07/22 01:56:15;;;;;;;9.57;4.78;;;;;;;;;;5034240;28;20025;-71
2022/07/22 01:58:41;;;;;;;13.50;5.95;;;;;;;;;;5033971;28;20009;-71
2022/07/22 02:01:08;;;;;;;12.55;4.80;;;;;;;;;;5033897;28;20481;-71
2022/07/22 02:03:34;;;;;;;8.05;4.75;;;;;;;;;;5034042;28;20049;-71
2022/07/22 02:06:00;;;;;;;10.20;5.95;;;;;;;;;;5034118;28;20425;-71
2022/07/22 02:08:26;;;;;;;16.60;5.55;;;;;;;;;;5018607;28;20061;-71
2022/07/22 02:10:52;;;;;;;9.80;4.47;;;;;;;;;;5032482;28;20497;-74
2022/07/22 02:13:18;;;;;;;9.55;5.03;;;;;;;;;;5027597;28;20033;-70
2022/07/22 02:15:44;;;;;;;7.13;4.30;;;;;;;;;;5036516;28;20025;-70
2022/07/22 02:18:11;;;;;;;11.38;7.45;;;;;;;;;;5034353;28;20022;-70
2022/07/22 02:20:37;;;;;;;11.13;6.18;;;;;;;;;;5028491;28;20022;-71
2022/07/22 02:23:03;;;;;;;18.63;6.53;;;;;;;;;;5023548;28;20071;-70
2022/07/22 02:25:30;;;;;;;8.02;5.00;;;;;;;;;;5033608;28;20072;-70
2022/07/22 02:27:56;;;;;;;6.95;4.40;;;;;;;;;;5033836;28;20018;-71
2022/07/22 02:30:22;;;;;;;10.93;5.88;;;;;;;;;;5019524;28;20137;-70
2022/07/22 02:32:48;;;;;;;10.38;5.15;;;;;;;;;;5019405;28;20033;-71
2022/07/22 02:35:14;;;;;;;12.63;5.30;;;;;;;;;;5033397;28;20405;-70
2022/07/22 02:37:40;;;;;;;12.75;5.65;;;;;;;;;;5033036;28;20064;-70
2022/07/22 02:40:08;;;;;;;11.52;5.45;;;;;;;;;;5033069;28;20546;-70
2022/07/22 02:42:34;;;;;;;10.88;4.50;;;;;;;;;;5033504;28;20112;-70
2022/07/22 02:45:00;;;;;;;12.50;5.05;;;;;;;;;;5032116;28;20033;-70
2022/07/22 02:47:26;;;;;;;10.82;5.40;;;;;;;;;;5032962;28;20553;-70
2022/07/22 02:49:52;;;;;;;14.23;5.45;;;;;;;;;;5032910;28;20030;-71
2022/07/22 02:52:18;;;;;;;11.88;5.40;;;;;;;;;;5031949;28;20033;-70
2022/07/22 02:54:44;;;;;;;9.38;5.35;;;;;;;;;;5031869;28;20179;-70
2022/07/22 02:57:11;;;;;;;16.95;6.78;;;;;;;;;;5033136;28;20047;-70
2022/07/22 02:59:37;;;;;;;12.30;5.30;;;;;;;;;;5032809;28;20116;-71
2022/07/22 03:02:03;;;;;;;14.32;6.60;;;;;;;;;;5031607;28;20017;-70
2022/07/22 03:04:29;;;;;;;13.48;7.22;;;;;;;;;;5033264;28;20499;-70
2022/07/22 03:06:55;;;;;;;15.75;10.80;;;;;;;;;;5032983;28;20021;-70
2022/07/22 03:09:21;;;;;;;11.80;7.07;;;;;;;;;;5032955;28;20041;-71
2022/07/22 03:11:47;;;;;;;10.73;6.68;;;;;;;;;;5032660;28;20108;-71
2022/07/22 03:14:14;;;;;;;10.88;6.97;;;;;;;;;;5032572;28;20014;-70
2022/07/22 03:16:40;;;;;;;12.05;6.00;;;;;;;;;;5034222;28;20381;-71
2022/07/22 03:19:06;;;;;;;14.90;6.38;;;;;;;;;;5033276;28;20021;-70
2022/07/22 03:21:32;;;;;;;16.65;6.25;;;;;;;;;;5033008;28;20510;-70
2022/07/22 03:23:58;;;;;;;8.45;5.07;;;;;;;;;;5032794;28;20018;-70
2022/07/22 03:26:25;;;;;;;8.30;5.55;;;;;;;;;;5032522;28;20477;-71
2022/07/22 03:28:51;;;;;;;9.57;5.40;;;;;;;;;;5032345;28;20105;-71
2022/07/22 03:31:18;;;;;;;9.80;5.85;;;;;;;;;;5032244;28;20021;-72
2022/07/22 03:33:44;;;;;;;13.68;5.10;;;;;;;;;;5032285;28;20072;-71
2022/07/22 03:36:10;;;;;;;9.00;5.28;;;;;;;;;;5030780;28;20017;-70
2022/07/22 03:38:36;;;;;;;11.88;6.35;;;;;;;;;;5032318;28;20477;-74
2022/07/22 03:41:03;;;;;;;9.93;5.57;;;;;;;;;;5031833;28;20018;-73
2022/07/22 03:43:29;;;;;;;18.45;5.50;;;;;;;;;;5032102;28;20022;-74
2022/07/22 03:45:55;;;;;;;9.82;5.47;;;;;;;;;;5031463;28;20033;-73
2022/07/22 03:48:21;;;;;;;9.93;5.18;;;;;;;;;;5030041;28;20566;-74
2022/07/22 03:50:49;;;;;;;11.52;5.57;;;;;;;;;;5032245;28;20026;-73
2022/07/22 03:53:15;;;;;;;12.20;5.20;;;;;;;;;;5032053;28;20040;-74
2022/07/22 03:55:41;;;;;;;9.57;4.97;;;;;;;;;;5032079;28;20021;-74
2022/07/22 03:58:07;;;;;;;17.60;6.38;;;;;;;;;;5027722;28;20021;-74
2022/07/22 04:00:34;;;;;;;11.48;5.70;;;;;;;;;;5024171;28;20022;-73
2022/07/22 04:03:00;;;;;;;10.77;6.90;;;;;;;;;;5024860;28;20029;-74
2022/07/22 04:05:26;;;;;;;9.43;5.43;;;;;;;;;;5030646;28;20026;-73
2022/07/22 04:07:52;;;;;;;9.63;5.45;;;;;;;;;;5031933;28;20029;-74
2022/07/22 04:10:18;;;;;;;11.13;6.78;;;;;;;;;;5031501;28;20563;-74
2022/07/22 04:12:44;;;;;;;11.98;6.50;;;;;;;;;;5032110;28;20041;-73
2022/07/22 04:15:10;;;;;;;9.50;5.32;;;;;;;;;;5033411;28;20431;-75
2022/07/22 04:17:36;;;;;;;14.18;6.38;;;;;;;;;;5031860;28;20018;-74
2022/07/22 04:20:04;;;;;;;19.70;8.18;;;;;;;;;;5017893;28;20033;-73
2022/07/22 04:22:30;;;;;;;13.75;5.70;;;;;;;;;;5030671;28;20480;-74
2022/07/22 04:24:56;;;;;;;12.93;5.50;;;;;;;;;;5030029;28;20013;-76
2022/07/22 04:27:23;;;;;;;22.65;6.88;;;;;;;;;;5031468;28;20013;-74
2022/07/22 04:29:49;;;;;;;9.85;5.50;;;;;;;;;;5031698;28;20025;-73
2022/07/22 04:32:15;;;;;;;11.27;6.28;;;;;;;;;;5031253;28;20041;-74
2022/07/22 04:34:42;;;;;;;12.27;6.70;;;;;;;;;;5024993;28;20065;-74
2022/07/22 04:37:08;;;;;;;15.63;7.10;;;;;;;;;;5025270;28;20112;-73
2022/07/22 04:39:34;;;;;;;18.50;8.10;;;;;;;;;;5031211;28;20018;-74
2022/07/22 04:42:00;;;;;;;25.25;15.00;;;;;;;;;;5031481;28;20021;-73
2022/07/22 04:44:27;;;;;;;35.15;24.35;;;;;;;;;;5034807;28;20026;-73
2022/07/22 04:46:53;;;;;;;51.55;31.83;;;;;;;;;;5035351;28;20021;-73
2022/07/22 04:49:19;;;;;;;43.95;28.48;;;;;;;;;;5035578;28;20022;-74
2022/07/22 04:51:45;;;;;;;18.05;14.23;;;;;;;;;;5034935;28;20030;-74
2022/07/22 04:54:11;;;;;;;23.33;10.93;;;;;;;;;;5035636;28;20014;-75
2022/07/22 04:56:37;;;;;;;15.80;8.73;;;;;;;;;;5035106;28;20017;-73
2022/07/22 04:59:03;;;;;;;28.27;8.98;;;;;;;;;;5034201;28;20021;-73
2022/07/22 05:01:30;;;;;;;22.40;8.63;;;;;;;;;;5033760;28;20483;-73
2022/07/22 05:03:56;;;;;;;23.65;8.85;;;;;;;;;;5035211;28;20080;-74
2022/07/22 05:06:22;;;;;;;14.93;8.82;;;;;;;;;;5035105;28;20021;-74
2022/07/22 05:08:48;;;;;;;16.20;8.93;;;;;;;;;;5034435;28;20115;-74
2022/07/22 05:11:14;;;;;;;14.27;7.45;;;;;;;;;;5033473;28;20033;-73
2022/07/22 05:13:40;;;;;;;27.58;8.45;;;;;;;;;;5033398;28;20037;-73
2022/07/22 05:16:07;;;;;;;18.05;10.35;;;;;;;;;;5033518;28;20075;-74
2022/07/22 05:18:34;;;;;;;24.30;9.98;;;;;;;;;;5034754;28;20029;-74
2022/07/22 05:21:00;;;;;;;20.88;8.05;;;;;;;;;;5036523;28;20009;-74
2022/07/22 05:23:26;;;;;;;19.95;7.95;;;;;;;;;;5020653;28;20026;-73
2022/07/22 05:25:53;;;;;;;15.30;7.15;;;;;;;;;;5033376;28;20039;-74
2022/07/22 05:28:19;;;;;;;16.45;8.23;;;;;;;;;;5023541;28;20018;-74
2022/07/22 05:30:46;;;;;;;19.70;9.43;;;;;;;;;;5049695;28;20013;-74
2022/07/22 05:33:12;;;;;;;16.20;7.28;;;;;;;;;;5034665;28;20025;-74
2022/07/22 05:35:38;;;;;;;18.83;10.13;;;;;;;;;;5034174;28;20021;-74
2022/07/22 05:38:05;;;;;;;24.15;11.48;;;;;;;;;;5034433;28;20023;-74
2022/07/22 05:40:31;;;;;;;24.00;12.45;;;;;;;;;;5033005;28;20024;-74
2022/07/22 05:42:58;;;;;;;14.60;7.85;;;;;;;;;;5033972;28;20014;-73
2022/07/22 05:45:24;;;;;;;12.73;8.07;;;;;;;;;;5035941;28;20033;-73
2022/07/22 05:47:50;;;;;;;16.05;8.20;;;;;;;;;;5034362;28;20030;-73
2022/07/22 05:50:16;;;;;;;17.20;7.00;;;;;;;;;;5019165;28;20029;-73
2022/07/22 05:52:42;;;;;;;16.48;8.27;;;;;;;;;;5034099;28;20034;-73
2022/07/22 05:55:09;;;;;;;18.30;8.52;;;;;;;;;;5032715;28;20022;-75
2022/07/22 05:57:36;;;;;;;21.15;7.72;;;;;;;;;;5034293;28;20044;-73
2022/07/22 06:00:03;;;;;;;13.00;7.55;;;;;;;;;;5034499;28;20519;-73
2022/07/22 06:02:29;;;;;;;19.45;10.20;;;;;;;;;;5033126;28;20071;-74
2022/07/22 06:04:55;;;;;;;21.38;9.15;;;;;;;;;;5033761;28;20124;-75
2022/07/22 06:07:21;;;;;;;23.67;10.20;;;;;;;;;;5033684;28;20448;-74
2022/07/22 06:09:48;;;;;;;22.25;8.82;;;;;;;;;;5033547;28;20057;-75
2022/07/22 06:12:14;;;;;;;19.70;7.88;;;;;;;;;;5031763;28;20433;-75
2022/07/22 06:14:41;;;;;;;20.10;7.35;;;;;;;;;;5033057;28;20567;-75
2022/07/22 06:17:07;;;;;;;19.80;6.82;;;;;;;;;;5031978;28;20020;-74
2022/07/22 06:19:34;;;;;;;11.35;6.45;;;;;;;;;;5035694;28;20032;-73
2022/07/22 06:22:00;;;;;;;16.00;7.32;;;;;;;;;;5032849;28;20017;-74
2022/07/22 06:24:26;;;;;;;18.70;5.78;;;;;;;;;;5033175;28;20090;-73
2022/07/22 06:26:52;;;;;;;12.25;6.05;;;;;;;;;;5033389;28;20060;-74
2022/07/22 06:29:18;;;;;;;15.23;5.90;;;;;;;;;;5033509;28;20047;-75
2022/07/22 06:31:44;;;;;;;14.40;5.18;;;;;;;;;;5028626;28;20014;-74
2022/07/22 06:34:10;;;;;;;9.52;4.75;;;;;;;;;;5030568;28;20481;-74
2022/07/22 06:36:36;;;;;;;9.38;5.05;;;;;;;;;;5032893;28;20025;-73
2022/07/22 06:39:03;;;;;;;12.40;5.00;;;;;;;;;;5032603;28;20021;-74
2022/07/22 06:41:29;;;;;;;12.18;5.15;;;;;;;;;;5032649;28;20049;-74
2022/07/22 06:43:55;;;;;;;12.38;5.80;;;;;;;;;;5031711;28;20079;-74
2022/07/22 06:46:21;;;;;;;22.70;5.10;;;;;;;;;;5032073;28;20025;-74
2022/07/22 06:48:47;;;;;;;8.25;5.05;;;;;;;;;;5031534;28;20026;-74
2022/07/22 06:51:13;;;;;;;11.00;4.97;;;;;;;;;;5032503;28;20916;-75
2022/07/22 06:53:39;;;;;;;10.50;5.72;;;;;;;;;;5032528;28;20065;-75
2022/07/22 06:56:05;;;;;;;11.82;6.65;;;;;;;;;;5033148;28;20516;-75
2022/07/22 06:58:31;;;;;;;13.10;5.35;;;;;;;;;;5033493;28;20354;-74
2022/07/22 07:00:58;;;;;;;10.82;5.55;;;;;;;;;;5033019;28;20022;-73
2022/07/22 07:03:25;;;;;;;10.90;4.85;;;;;;;;;;5031325;28;20028;-76
2022/07/22 07:05:51;;;;;;;10.60;4.47;;;;;;;;;;5020579;28;20439;-75
2022/07/22 07:08:18;;;;;;;18.45;8.43;;;;;;;;;;5030650;28;20054;-75
2022/07/22 07:10:44;;;;;;;14.15;5.50;;;;;;;;;;5032091;28;20030;-75
2022/07/22 07:13:10;;;;;;;9.75;5.57;;;;;;;;;;5032310;28;20049;-75
2022/07/22 07:15:36;;;;;;;11.48;5.00;;;;;;;;;;5031853;28;20016;-75
2022/07/22 07:18:02;;;;;;;15.50;5.65;;;;;;;;;;5027806;28;20032;-75
2022/07/22 07:20:29;;;;;;;13.85;4.82;;;;;;;;;;5029712;28;20041;-76
2022/07/22 07:22:55;;;;;;;18.00;6.35;;;;;;;;;;5030841;28;20560;-75
2022/07/22 07:25:21;;;;;;;16.67;5.07;;;;;;;;;;5031961;28;20025;-73
2022/07/22 07:27:48;;;;;;;14.05;7.32;;;;;;;;;;5030776;28;20108;-75
2022/07/22 07:30:14;;;;;;;10.85;7.70;;;;;;;;;;5031714;28;20057;-74
2022/07/22 07:32:40;;;;;;;11.63;5.60;;;;;;;;;;5031000;28;20064;-75
2022/07/22 07:35:07;;;;;;;10.32;4.15;;;;;;;;;;5031625;28;20063;-74
2022/07/22 07:37:33;;;;;;;7.65;4.18;;;;;;;;;;5031834;28;20540;-75
2022/07/22 07:40:00;;;;;;;7.53;3.88;;;;;;;;;;5030519;28;20022;-76
2022/07/22 07:42:26;;;;;;;7.68;3.92;;;;;;;;;;5032057;28;20076;-75
2022/07/22 07:44:53;;;;;;;13.35;4.53;;;;;;;;;;5031870;28;20017;-75
2022/07/22 07:47:20;;;;;;;11.18;3.83;;;;;;;;;;5030189;28;20057;-74
2022/07/22 07:49:47;;;;;;;11.02;5.20;;;;;;;;;;5031516;28;20026;-74
2022/07/22 07:52:13;;;;;;;13.65;10.88;;;;;;;;;;5031560;28;20062;-73
2022/07/22 07:54:42;;;;;;;11.93;4.88;;;;;;;;;;5032043;28;20032;-74
2022/07/22 07:57:12;;;;;;;9.70;4.85;;;;;;;;;;5017966;28;20035;-74
2022/07/22 07:59:39;;;;;;;9.65;4.55;;;;;;;;;;5030588;28;20488;-74
2022/07/22 08:02:05;;;;;;;9.38;4.47;;;;;;;;;;5030392;28;20124;-74
2022/07/22 08:04:31;;;;;;;11.85;4.88;;;;;;;;;;5031920;28;20097;-75
2022/07/22 08:06:58;;;;;;;10.25;4.53;;;;;;;;;;5032408;28;20079;-73
2022/07/22 08:09:24;;;;;;;14.52;7.90;;;;;;;;;;5032636;28;20057;-74
2022/07/22 08:11:50;;;;;;;16.70;8.85;;;;;;;;;;5030641;28;20104;-73
2022/07/22 08:14:16;;;;;;;12.38;6.88;;;;;;;;;;5031083;28;20061;-73
2022/07/22 08:16:42;;;;;;;14.55;5.97;;;;;;;;;;5031235;28;20491;-74
2022/07/22 08:19:09;;;;;;;12.38;7.65;;;;;;;;;;5030397;28;20060;-73
2022/07/22 08:21:35;;;;;;;8.85;5.03;;;;;;;;;;5031101;28;20441;-74
2022/07/22 08:24:01;;;;;;;14.25;8.60;;;;;;;;;;5031031;28;20021;-74
2022/07/22 08:26:27;;;;;;;11.70;5.28;;;;;;;;;;5030951;28;20017;-74
2022/07/22 08:28:54;;;;;;;10.00;5.80;;;;;;;;;;5029665;28;20097;-74
2022/07/22 08:31:20;;;;;;;9.82;5.45;;;;;;;;;;5029839;28;20025;-74
2022/07/22 08:33:46;;;;;;;13.32;5.97;;;;;;;;;;5030995;28;20429;-74
2022/07/22 08:36:12;;;;;;;17.20;12.13;;;;;;;;;;5030902;28;20017;-74
2022/07/22 08:38:38;;;;;;;13.80;4.45;;;;;;;;;;5030874;28;20485;-75
2022/07/22 08:41:04;;;;;;;8.15;4.07;;;;;;;;;;5030938;28;20057;-73
2022/07/22 08:43:31;;;;;;;9.73;4.68;;;;;;;;;;5031115;28;20443;-74
2022/07/22 08:45:58;;;;;;;11.77;5.90;;;;;;;;;;5031252;28;20027;-73
2022/07/22 08:48:24;;;;;;;10.43;5.50;;;;;;;;;;5025133;28;20033;-73
2022/07/22 08:50:50;;;;;;;12.20;5.53;;;;;;;;;;5021929;28;20029;-74
2022/07/22 08:53:16;;;;;;;8.15;4.53;;;;;;;;;;5030427;28;20041;-74
2022/07/22 08:55:43;;;;;;;8.27;4.68;;;;;;;;;;5029530;28;20021;-75
2022/07/22 08:58:10;;;;;;;7.70;5.13;;;;;;;;;;5031065;28;20446;-74
2022/07/22 09:00:36;;;;;;;9.98;3.50;;;;;;;;;;5030703;28;20445;-75
2022/07/22 09:03:16;;;;;;;7.40;4.28;;;;;;;;;;5029385;28;20029;-73
2022/07/22 09:05:43;;;;;;;11.45;7.20;;;;;;;;;;5042310;28;20087;-74
2022/07/22 09:08:09;;;;;;;9.45;5.65;;;;;;;;;;5029574;28;20485;-74
2022/07/22 09:10:36;;;;;;;9.93;4.63;;;;;;;;;;5030970;28;20032;-74
2022/07/22 09:13:04;;;;;;;8.13;4.22;;;;;;;;;;5030618;28;20040;-74
2022/07/22 09:15:35;;;;;;;13.35;4.78;;;;;;;;;;5030891;28;20435;-75
2022/07/22 09:18:02;;;;;;;6.55;3.80;;;;;;;;;;5030768;28;20429;-75
2022/07/22 09:20:29;;;;;;;8.80;4.22;;;;;;;;;;5015278;28;20026;-74
2022/07/22 09:22:55;;;;;;;11.43;4.95;;;;;;;;;;5023940;28;20045;-74
2022/07/22 09:25:22;;;;;;;9.38;4.38;;;;;;;;;;5057121;28;20154;-74
2022/07/22 09:27:49;;;;;;;7.18;4.10;;;;;;;;;;5029442;28;20407;-75
2022/07/22 09:30:19;;;;;;;6.28;4.03;;;;;;;;;;5031517;28;20481;-74
2022/07/22 09:32:46;;;;;;;10.65;4.22;;;;;;;;;;5034064;28;20044;-73
2022/07/22 09:35:13;;;;;;;12.38;4.47;;;;;;;;;;5021261;28;20117;-74
2022/07/22 09:37:48;;;;;;;12.35;7.72;;;;;;;;;;5032510;28;20137;-75
2022/07/22 09:40:16;;;;;;;6.28;3.95;;;;;;;;;;5034406;28;20496;-74
2022/07/22 09:42:53;;;;;;;15.90;13.50;;;;;;;;;;5018761;28;20105;-74
2022/07/22 09:45:20;;;;;;;15.35;6.75;;;;;;;;;;5032827;28;20130;-75
2022/07/22 09:47:46;;;;;;;9.85;5.45;;;;;;;;;;5034044;28;20053;-74
2022/07/22 09:50:31;;;;;;;8.63;4.63;;;844.80;281.60;;;;;;5034006;28;20025;-77
2022/07/22 09:52:59;;;;;;;12.75;4.05;;;819.90;281.60;;;;;;5034064;28;20030;-74
2022/07/22 09:55:26;;;;;;;11.52;5.40;;;819.80;256.00;;;;;;5034048;28;20028;-75
2022/07/22 09:57:54;;;;;;;14.38;7.70;;;819.80;281.60;;;;;;5032684;28;20070;-76
2022/07/22 10:00:23;;;;;;;15.43;10.10;;;819.60;307.20;;;;;;5033208;28;20036;-74
2022/07/22 10:02:53;;;;;;;9.75;8.30;;;819.50;307.20;;;;;;5033884;28;20425;-74
2022/07/22 10:05:25;;;;;;;15.95;7.75;;;819.50;307.20;;;;;;5033948;28;20035;-75
2022/07/22 10:07:52;;;;;;;13.48;7.20;;;819.50;332.80;;;;;;5033499;28;20021;-74
2022/07/22 10:10:21;;;;;;;15.20;4.05;;;819.70;307.20;;;;;;5034154;28;20033;-75
2022/07/22 10:12:52;;;;;;;13.15;4.40;;;820.10;256.00;;;;;;5033976;28;20615;-74
2022/07/22 10:15:18;;;;;;;8.45;4.15;;;;;;;;;;5032082;28;20100;-75
2022/07/22 10:17:48;;;;;;;12.25;4.80;;;;;;;;;;5024313;28;20026;-74
2022/07/22 10:20:16;;;;;;;6.60;4.13;;;;;;;;;;5027988;28;20045;-74
2022/07/22 10:22:42;;;;;;;11.38;4.65;;;;;;;;;;5036237;28;20477;-75
2022/07/22 10:25:10;;;;;;;7.55;4.60;;;;;;;;;;5034103;28;20022;-74
2022/07/22 10:27:46;;;;;;;13.35;5.57;;;;;;;;;;5033075;28;20053;-74
2022/07/22 10:30:27;;;;;;;8.38;4.65;;;;;;;;;;5032113;28;20029;-74
2022/07/22 10:33:03;;;;;;;7.63;3.85;;;;;;;;;;5021989;28;20085;-76
2022/07/22 10:35:30;;;;;;;11.05;5.57;;;;;;;;;;5033240;28;20029;-75
2022/07/22 10:37:57;;;;;;;15.50;5.28;;;;;;;;;;5032946;28;20116;-74
2022/07/22 10:40:24;;;;;;;15.48;5.45;;;;;;;;;;5032556;28;20049;-74
2022/07/22 10:43:03;;;;;;;9.30;4.38;;;;;;;;;;5032513;28;20021;-74
2022/07/22 10:45:31;;;;;;;9.80;3.83;;;;;;;;;;5033216;28;20045;-74
2022/07/22 10:47:58;;;;;;;9.48;4.47;;;;;;;;;;5031189;28;20358;-74
2022/07/22 10:50:40;;;;;;;11.90;4.60;;;;;;;;;;5031462;28;20075;-75
2022/07/22 10:53:09;;;;;;;7.90;3.80;;;;;;;;;;5032592;28;20033;-76
2022/07/22 10:55:35;;;;;;;10.82;5.03;;;;;;;;;;5032496;28;20527;-75
2022/07/22 10:58:22;;;;;;;6.93;4.00;;;;;;;;;;5032293;28;20021;-75
2022/07/22 11:00:48;;;;;;;6.80;3.75;;;;;;;;;;5025503;28;20405;-75
2022/07/22 11:03:25;;;;;;;5.32;3.33;;;;;;;;;;5032452;28;20036;-75
2022/07/22 11:05:51;;;;;;;9.52;4.63;;;;;;;;;;5032850;28;20507;-75
2022/07/22 11:08:18;;;;;;;8.32;4.28;;;;;;;;;;5032150;28;20060;-75
2022/07/22 11:10:48;;;;;;;12.85;4.43;;;;;;;;;;5032150;28;20013;-75
2022/07/22 11:13:30;;;;;;;7.25;4.75;;;;;;;;;;5032478;28;20103;-74
2022/07/22 11:15:57;;;;;;;9.23;4.57;;;;;;;;;;5035336;28;20013;-75
2022/07/22 11:18:23;;;;;;;6.43;3.13;;;;;;;;;;5032312;28;20638;-74
2022/07/22 11:20:49;;;;;;;6.63;3.50;;;;;;;;;;5032164;28;20093;-75
2022/07/22 11:23:16;;;;;;;8.80;4.55;;;;;;;;;;5034632;28;20061;-75
2022/07/22 11:25:42;;;;;;;7.65;3.17;;;;;;;;;;5018120;28;20112;-74
2022/07/22 11:28:09;;;;;;;9.23;3.88;;;;;;;;;;5030864;28;20083;-74
2022/07/22 11:30:35;;;;;;;16.85;4.35;;;;;;;;;;5030450;28;20033;-75
2022/07/22 11:33:02;;;;;;;13.50;4.78;;;;;;;;;;5032262;28;20147;-75
2022/07/22 11:35:28;;;;;;;7.82;3.67;;;;;;;;;;5032090;28;20022;-78
2022/07/22 11:37:58;;;;;;;9.15;3.92;;;;;;;;;;5030959;28;20024;-77
2022/07/22 11:40:24;;;;;;;8.95;4.00;;;;;;;;;;5031730;28;20026;-76
2022/07/22 11:43:03;;;;;;;6.72;3.42;;;;;;;;;;5031800;28;20022;-75
2022/07/22 11:45:29;;;;;;;6.88;3.75;;;;;;;;;;5033083;28;20603;-76
2022/07/22 11:47:55;;;;;;;7.60;3.70;;;;;;;;;;5031926;28;20025;-76
2022/07/22 11:50:34;;;;;;;5.43;3.42;;;;;;;;;;5030310;28;20116;-75
2022/07/22 11:53:02;;;;;;;13.35;4.75;;;;;;;;;;5031363;28;20037;-76
2022/07/22 11:55:28;;;;;;;8.38;3.20;;;;;;;;;;5031693;28;20021;-74
2022/07/22 11:57:54;;;;;;;8.32;4.97;;;;;;;;;;5029869;28;20026;-75
2022/07/22 12:00:20;;;;;;;6.22;3.35;;;;;;;;;;5030609;28;20025;-74
2022/07/22 12:02:46;;;;;;;6.72;3.75;;;;;;;;;;5030400;28;20414;-76
2022/07/22 12:05:13;;;;;;;10.35;6.60;;;;;;;;;;5030881;28;20028;-76
2022/07/22 12:07:39;;;;;;;6.20;4.00;;;;;;;;;;5029321;28;20423;-75
2022/07/22 12:10:06;;;;;;;8.75;4.93;;;;;;;;;;5030905;28;20422;-74
2022/07/22 12:12:42;;;;;;;10.50;4.15;;;;;;;;;;5029829;28;20049;-76
2022/07/22 12:15:08;;;;;;;11.13;6.88;;;;;;;;;;5030190;28;20124;-77
2022/07/22 12:17:34;;;;;;;6.53;3.55;;;;;;;;;;5029270;28;20022;-74
2022/07/22 12:20:10;;;;;;;5.43;2.95;;;;;;;;;;5029329;28;20021;-77
2022/07/22 12:22:45;;;;;;;4.60;3.20;;;;;;;;;;5029132;28;20043;-76
2022/07/22 12:25:11;;;;;;;8.45;3.53;;;;;;;;;;5030516;28;20499;-78
2022/07/22 12:27:37;;;;;;;5.55;3.67;;;;;;;;;;5031127;28;20029;-78
2022/07/22 12:30:12;;;;;;;6.38;4.03;;;;;;;;;;5030397;28;20056;-77
2022/07/22 12:32:46;;;;;;;8.70;3.08;;;;;;;;;;5040430;28;20143;-75
2022/07/22 12:35:14;;;;;;;7.55;4.00;;;;;;;;;;5029610;28;20029;-75
2022/07/22 12:37:44;;;;;;;6.88;4.28;;;;;;;;;;5029273;28;20022;-76
2022/07/22 12:40:17;;;;;;;6.18;2.70;;;;;;;;;;5027774;28;20026;-76
2022/07/22 12:42:44;;;;;;;10.50;4.63;;;;;;;;;;5027950;28;20104;-76
2022/07/22 12:45:18;;;;;;;5.57;3.78;;;;;;;;;;5029951;28;20022;-75
2022/07/22 12:47:55;;;;;;;5.90;2.80;;;;;;;;;;5030777;28;20068;-75
2022/07/22 12:50:40;;;;;;;9.88;3.47;;;;;;;;;;5028192;28;20026;-76
2022/07/22 12:53:08;;;;;;;9.38;5.20;;;;;;;;;;5043531;28;20080;-78
2022/07/22 12:55:35;;;;;;;6.00;3.47;;;;;;;;;;5029515;28;20385;-78
2022/07/22 12:58:02;;;;;;;7.45;3.08;;;;;;;;;;5030148;28;20018;-76
2022/07/22 13:00:29;;;;;;;10.55;5.55;;;;;;;;;;5028520;28;20551;-75
2022/07/22 13:02:55;;;;;;;10.23;4.63;;;;;;;;;;5029908;28;20414;-76
2022/07/22 13:05:22;;;;;;;7.35;4.30;;;;;;;;;;5032469;28;20028;-78
2022/07/22 13:07:48;;;;;;;20.40;14.50;;;;;;;;;;5033533;28;20021;-78
2022/07/22 13:10:14;;;;;;;6.05;3.40;;;;;;;;;;5033743;28;20493;-75
2022/07/22 13:12:41;;;;;;;10.13;4.82;;;;;;;;;;5032192;28;20036;-76
2022/07/22 13:15:08;;;;;;;12.02;7.53;;;;;;;;;;5032724;28;20167;-76
2022/07/22 13:17:34;;;;;;;7.63;3.78;;;;;;;;;;5033985;28;20025;-75
2022/07/22 13:20:01;;;;;;;8.05;3.95;;;;;;;;;;5043705;28;20025;-74
2022/07/22 13:22:27;;;;;;;10.55;4.82;;;;;;;;;;5034312;28;20077;-73
2022/07/22 13:24:53;;;;;;;7.20;4.35;;;;;;;;;;5034189;28;20044;-74
2022/07/22 13:27:19;;;;;;;8.52;3.67;;;;;;;;;;5033033;28;20025;-74
2022/07/22 13:29:45;;;;;;;13.50;5.50;;;;;;;;;;5033040;28;20017;-75
2022/07/22 13:32:11;;;;;;;9.60;4.60;;;;;;;;;;5032826;28;20030;-74
2022/07/22 13:34:37;;;;;;;7.38;4.25;;;;;;;;;;5032443;28;20026;-73
2022/07/22 13:37:03;;;;;;;9.15;5.15;;;;;;;;;;5032833;28;20116;-75
2022/07/22 13:39:29;;;;;;;6.65;4.35;;;;;;;;;;5031692;28;20381;-73
2022/07/22 13:41:55;;;;;;;6.78;3.28;;;;;;;;;;5032822;28;20566;-74
2022/07/22 13:44:22;;;;;;;6.80;4.35;;;;;;;;;;5031910;28;20029;-76
2022/07/22 13:46:48;;;;;;;10.95;4.38;;;;;;;;;;5032428;28;20025;-78
2022/07/22 13:49:14;;;;;;;8.65;6.22;;;;;;;;;;5034217;28;20022;-78
2022/07/22 13:51:41;;;;;;;4.72;3.17;;;;;;;;;;5032839;28;20484;-74
2022/07/22 13:54:07;;;;;;;16.77;15.88;;;;;;;;;;5033791;28;20041;-79
2022/07/22 13:56:33;;;;;;;10.40;7.05;;;;;;;;;;5031504;28;20114;-77
2022/07/22 13:58:59;;;;;;;8.00;7.30;;;;;;;;;;5033691;28;20520;-78
2022/07/22 14:01:25;;;;;;;32.90;30.52;;;;;;;;;;5032063;28;20362;-78
2022/07/22 14:03:52;;;;;;;9.27;4.32;;;;;;;;;;5031365;28;20026;-76
2022/07/22 14:06:18;;;;;;;14.00;12.82;;;;;;;;;;5033869;28;20018;-78
2022/07/22 14:08:44;;;;;;;6.00;5.40;;;;;;;;;;5032275;28;20060;-76
2022/07/22 14:11:10;;;;;;;6.20;4.88;;;;;;;;;;5032876;28;20091;-77
2022/07/22 14:13:36;;;;;;;10.90;9.82;;;;;;;;;;5031653;28;20611;-76
2022/07/22 14:18:46;;;;;;;6.47;4.10;;;;;;;;;;5031238;28;20398;-77
2022/07/22 14:21:13;;;;;;;8.10;3.88;;;;;;;;;;5030409;28;20449;-77
2022/07/22 14:23:39;;;;;;;9.20;5.65;;;;;;;;;;5031503;28;20067;-77
2022/07/22 14:26:05;;;;;;;4.85;3.65;;;;;;;;;;5032641;28;20600;-78
2022/07/22 14:28:32;;;;;;;10.60;4.93;;;;;;;;;;5031323;28;20358;-76
2022/07/22 14:30:58;;;;;;;8.07;4.55;;;;;;;;;;5031393;28;20018;-77
2022/07/22 14:33:24;;;;;;;10.18;4.70;;;;;;;;;;5031521;28;20029;-79